Millenium Air

Millenium Air Since 1998



 METAR AND TAF INFORMATION

Deprecated: The each() function is deprecated. This message will be suppressed on further calls in /var/www/virtual/milleniumair.it/htdocs/vam/helpers/get_metar.php on line 20
METAR FOR WAQQ
ADDS - METARS form results

(0253 UTC 23 September 2021)
Data provider http://aviationweather.gov/metar/data/
 
METAR text: WAQQ 230230Z 00000KT 5000 RA BKN015 OVC070 24/23 Q1013 METAR
Conditions at: WAQQ (JUWATA , ID) observed 0230 UTC 23 September 2021
Temperature: 24.0°C (75°F)
Dewpoint: 23.0°C (73°F) [RH = 94%]
Pressure (altimeter): 29.91 inches Hg (1013.0 mb)
Winds: calm
Visibility: 3 miles ( 5 km)
Ceiling: 1500 feet AGL
Clouds: broken clouds at 1500 feet AGL
overcast cloud deck at 7000 feet AGL
Weather: RA  (moderate rain)

METAR text: WAQQ 230200Z 17002KT 5000 RA BKN015 OVC085 24/23 Q1013 METAR
Conditions at: WAQQ (JUWATA , ID) observed 0200 UTC 23 September 2021
Temperature: 24.0°C (75°F)
Dewpoint: 23.0°C (73°F) [RH = 94%]
Pressure (altimeter): 29.91 inches Hg (1013.0 mb)
Winds: from the S (170 degrees) at 2 MPH (2 knots; 1.0 m/s)
Visibility: 3 miles ( 5 km)
Ceiling: 1500 feet AGL
Clouds: broken clouds at 1500 feet AGL
overcast cloud deck at 8500 feet AGL
Weather: RA  (moderate rain)

Forecast for: WAQQ (JUWATA , ID)
Text: TAF WAQQ 222300Z 2300/2312 30005KT 9999 SCT015
Forecast period: 0000 to 1200 UTC 23 September 2021
Forecast type: FROM: standard forecast or significant change
Winds: from the WNW (300 degrees) at 6 MPH (5 knots; 2.6 m/s)
Visibility: 6 or more miles (10+ km)
Ceiling: at least 12,000 feet AGL
Clouds: scattered clouds at 1500 feet AGL
Weather: no significant weather forecast for this period

 AIRPORT MAP

 RUNWAY INFORMATION

 AIRPORT FREQUENCIES

 AIRPORT NEAR NAVIGATION AIDS